Terminal Aerodrome Forecast
Issued by NWS Upton, NY

Home | Current Version | Previous Version | Text Only | Print | Product List | Glossary On
Versions: 1 2 3 4 5 6 7 8 9 10 11 12 13 14 15 16 17 18 19 20 21 22 23 24 25 26 27 28 29 30 31
393
FTUS41 KOKX 222339
TAFISP
TAF
KISP 222339Z 2300/2324 VRB03KT 4SM BR OVC004
      TEMPO 2303/2307 2SM BR
     FM231000 36006KT P6SM BKN015 OVC030
     FM231200 01008KT P6SM BKN250
     FM231900 VRB05KT P6SM BKN150
     FM232100 20007KT P6SM BKN100=

USA.gov is the U.S. government's official web portal to all federal, state and local government web resources and services.